Time;durP1;ratioP1;P1;durP2;ratioP2;P2;SDS_P1;SDS_P2;PMS_P1;PMS_P2;Temp;Humidity;BMP_temperature;BMP_pressure;BME280_temperature;BME280_humidity;BME280_pressure;Samples;Min_cycle;Max_cycle;Signal;HPM_P1;HPM_P2
2023/01/22 00:02:12;;;;;;;37.90;19.00;;;;;;;2.01;100.00;100567.23;109694;1283;22427;-67
2023/01/22 00:04:39;;;;;;;;;;;;;;;2.00;100.00;100570.86;109608;1284;138534;-67
2023/01/22 00:07:05;;;;;;;37.10;20.00;;;;;;;2.00;100.00;100569.21;109732;1284;22210;-67
2023/01/22 00:09:32;;;;;;;42.10;24.00;;;;;;;2.02;100.00;100572.83;109709;1282;138810;-67
2023/01/22 00:11:59;;;;;;;43.60;24.00;;;;;;;2.03;100.00;100572.80;109875;1282;22377;-67
2023/01/22 00:14:26;;;;;;;42.60;23.70;;;;;;;2.05;100.00;100576.75;109818;1276;22313;-66
2023/01/22 00:16:52;;;;;;;46.60;24.20;;;;;;;2.06;100.00;100582.50;109676;1282;138162;-67
2023/01/22 00:19:19;;;;;;;39.00;21.20;;;;;;;2.07;100.00;100582.40;109830;1283;22285;-67
2023/01/22 00:21:46;;;;;;;40.50;22.80;;;;;;;2.09;100.00;100585.98;109749;1277;138203;-67
2023/01/22 00:24:12;;;;;;;42.20;22.80;;;;;;;2.09;100.00;100585.91;109809;1283;23224;-67
2023/01/22 00:26:39;;;;;;;44.40;23.80;;;;;;;2.10;100.00;100589.16;109689;1277;138313;-66
2023/01/22 00:29:06;;;;;;;50.40;23.00;;;;;;;2.11;100.00;100595.75;109762;1283;22229;-67
2023/01/22 00:31:33;;;;;;;46.00;23.00;;;;;;;2.08;100.00;100598.02;109803;1277;22494;-67
2023/01/22 00:34:00;;;;;;;;;;;;;;;2.03;100.00;100595.08;109662;1282;137927;-67
2023/01/22 00:36:29;;;;;;;44.80;21.70;;;;;;;2.03;100.00;100599.34;109754;1276;22313;-67
2023/01/22 00:38:56;;;;;;;43.10;24.00;;;;;;;2.02;100.00;100600.53;109730;1283;138232;-67
2023/01/22 00:41:23;;;;;;;41.20;23.00;;;;;;;2.01;100.00;100601.39;109783;1283;22438;-67
2023/01/22 00:43:50;;;;;;;42.20;23.30;;;;;;;2.00;100.00;100603.98;109827;1282;22193;-68
2023/01/22 00:46:18;;;;;;;36.70;20.50;;;;;;;1.98;100.00;100602.81;109731;1283;138214;-68
2023/01/22 00:48:48;;;;;;;;;;;;;;;1.96;100.00;100612.77;109823;1283;22394;-68
2023/01/22 00:51:15;;;;;;;42.10;21.50;;;;;;;1.92;100.00;100614.95;109693;1282;124987;-68
2023/01/22 00:53:42;;;;;;;43.80;25.10;;;;;;;1.89;100.00;100615.47;109796;1270;22220;-68
2023/01/22 00:56:10;;;;;;;40.70;22.80;;;;;;;1.86;100.00;100616.58;109705;1277;139994;-68
2023/01/22 00:58:36;;;;;;;44.60;24.50;;;;;;;1.86;100.00;100620.38;109749;1277;22281;-68
2023/01/22 01:01:03;;;;;;;;;;;;;;;1.85;100.00;100621.55;109849;1282;22427;-68
2023/01/22 01:03:31;;;;;;;41.30;22.00;;;;;;;1.85;100.00;100623.50;109661;1276;124547;-68
2023/01/22 04:52:19;;;;;;;23.70;15.50;;;;;;;1.89;100.00;100794.42;103597;1299;557603;-66
2023/01/22 04:54:46;;;;;;;25.00;15.20;;;;;;;2.03;100.00;100801.85;104574;1288;128524;-67
2023/01/22 04:57:13;;;;;;;23.80;13.80;;;;;;;2.07;100.00;100804.05;104597;1288;22544;-67
2023/01/22 04:59:40;;;;;;;;;;;;;;;2.10;100.00;100800.19;104728;1285;22745;-67
2023/01/22 05:02:07;;;;;;;23.10;13.70;;;;;;;2.12;100.00;100800.98;109288;1288;23119;-68
2023/01/22 05:04:34;;;;;;;20.10;12.90;;;;;;;2.13;100.00;100801.77;109220;1284;22536;-68
2023/01/22 05:07:00;;;;;;;;;;;;;;;2.18;100.00;100804.48;109262;1289;22493;-68
2023/01/22 05:09:27;;;;;;;26.60;13.40;;;;;;;2.19;100.00;100800.73;109326;1289;22420;-67
2023/01/22 05:11:57;;;;;;;23.20;13.50;;;;;;;2.21;100.00;100800.48;109228;1285;22212;-67
2023/01/22 05:14:26;;;;;;;21.90;13.30;;;;;;;2.22;100.00;100798.68;109312;1289;23096;-67
2023/01/22 05:16:53;;;;;;;;;;;;;;;2.26;100.00;100807.98;109276;1289;22451;-67
2023/01/22 05:19:20;;;;;;;24.80;14.50;;;;;;;2.30;100.00;100807.80;109421;1287;22340;-67
2023/01/22 05:21:47;;;;;;;;;;;;;;;2.31;100.00;100808.95;109306;1286;22412;-67
2023/01/22 05:24:17;;;;;;;21.40;13.70;;;;;;;2.32;100.00;100814.53;109340;1281;22438;-67
2023/01/22 05:26:44;;;;;;;21.20;12.40;;;;;;;2.32;100.00;100816.65;109213;1280;22208;-67
2023/01/22 05:29:14;;;;;;;22.30;13.50;;;;;;;2.32;100.00;100817.52;109260;1280;22340;-67
2023/01/22 05:31:57;;;;;;;20.60;12.90;;;;;;;2.33;100.00;100821.38;109232;1287;22248;-67
2023/01/22 05:34:28;;;;;;;19.60;12.00;;;;;;;2.33;100.00;100823.52;109312;1287;22280;-67
2023/01/22 05:36:55;;;;;;;18.10;11.80;;;;;;;2.34;100.00;100829.45;108976;1291;138589;-67
2023/01/22 05:39:24;;;;;;;16.80;11.20;;;;;;;2.35;100.00;100830.77;108398;1293;22555;-67
2023/01/22 05:41:53;;;;;;;18.60;11.50;;;;;;;2.37;100.00;100828.64;108879;1293;138933;-67
2023/01/22 05:44:20;;;;;;;20.10;12.90;;;;;;;2.37;100.00;100831.36;108957;1293;22367;-67
2023/01/22 05:46:50;;;;;;;23.40;12.10;;;;;;;2.37;100.00;100832.23;108856;1293;22223;-67
2023/01/22 05:49:24;;;;;;;17.40;10.40;;;;;;;2.37;100.00;100835.64;108815;1290;138293;-67
2023/01/22 05:51:54;;;;;;;22.40;12.00;;;;;;;2.36;100.00;100840.91;109013;1294;22309;-67
2023/01/22 05:54:21;;;;;;;19.60;11.80;;;;;;;2.37;100.00;100841.35;108797;1293;139669;-67
2023/01/22 05:56:48;;;;;;;21.50;12.00;;;;;;;2.37;100.00;100845.70;108709;1292;22350;-67
2023/01/22 05:59:16;;;;;;;18.30;11.40;;;;;;;2.37;100.00;100853.95;108938;1289;22382;-67
2023/01/22 06:01:50;;;;;;;21.10;12.20;;;;;;;2.36;100.00;100856.02;108784;1293;139494;-67
2023/01/22 06:04:17;;;;;;;20.40;13.00;;;;;;;2.34;100.00;100857.09;108718;1293;22218;-67
2023/01/22 06:06:43;;;;;;;22.10;12.50;;;;;;;2.33;100.00;100854.20;108708;1292;138490;-67
2023/01/22 06:09:12;;;;;;;21.70;12.40;;;;;;;2.32;100.00;100862.02;109113;1293;22420;-67
2023/01/22 06:11:39;;;;;;;19.00;11.10;;;;;;;2.31;100.00;100864.86;108842;1293;138834;-66
2023/01/22 06:14:06;;;;;;;21.40;11.90;;;;;;;2.30;100.00;100867.64;108970;1293;22189;-67
2023/01/22 06:16:33;;;;;;;21.70;12.80;;;;;;;2.30;100.00;100876.78;108956;1293;22361;-67
2023/01/22 06:19:03;;;;;;;20.60;13.30;;;;;;;2.30;100.00;100880.88;108875;1293;138155;-67
2023/01/22 06:21:42;;;;;;;19.50;12.60;;;;;;;2.30;100.00;100884.97;109010;1293;22190;-67
2023/01/22 06:24:09;;;;;;;24.30;14.40;;;;;;;2.28;100.00;100891.13;108774;1291;138337;-67
2023/01/22 06:26:36;;;;;;;20.30;14.00;;;;;;;2.27;100.00;100895.91;108989;1293;22202;-67
2023/01/22 06:29:04;;;;;;;26.30;14.30;;;;;;;2.27;100.00;100895.95;109014;1288;22194;-67
2023/01/22 06:31:31;;;;;;;22.70;13.80;;;;;;;2.26;100.00;100900.34;108911;1288;138340;-67
2023/01/22 06:33:58;;;;;;;31.50;17.00;;;;;;;2.26;100.00;100899.98;108916;1288;22235;-67
2023/01/22 06:36:25;;;;;;;28.30;15.60;;;;;;;2.26;100.00;100904.45;108870;1292;138692;-67
2023/01/22 06:38:52;;;;;;;24.60;14.60;;;;;;;2.24;100.00;100902.56;109109;1291;23121;-67
2023/01/22 06:41:29;;;;;;;26.70;14.60;;;;;;;2.18;100.00;100903.94;109308;1291;23221;-68
2023/01/22 06:43:57;;;;;;;28.60;15.10;;;;;;;2.13;100.00;100905.20;109003;1291;138224;-67
2023/01/22 06:46:24;;;;;;;26.60;14.60;;;;;;;2.08;100.00;100908.25;109239;1291;22218;-68
2023/01/22 06:49:09;;;;;;;25.70;13.40;;;;;;;2.03;100.00;100909.36;108949;1287;138427;-68
2023/01/22 06:51:37;;;;;;;24.60;15.00;;;;;;;2.00;100.00;100916.47;109237;1291;22215;-68
2023/01/22 06:54:04;;;;;;;26.60;15.00;;;;;;;1.97;100.00;100916.27;109110;1290;139887;-67
2023/01/22 06:56:30;;;;;;;;;;;;;;;1.94;100.00;100920.99;109265;1289;22444;-67
2023/01/22 06:58:58;;;;;;;22.20;12.90;;;;;;;1.89;100.00;100918.26;109086;1288;22219;-68
2023/01/22 07:01:27;;;;;;;28.50;15.50;;;;;;;1.87;100.00;100924.55;109112;1289;138438;-68
2023/01/22 07:03:54;;;;;;;25.20;14.00;;;;;;;1.87;100.00;100923.16;109280;1292;22215;-67
2023/01/22 07:06:22;;;;;;;27.70;15.20;;;;;;;1.86;100.00;100926.27;109134;1291;138289;-68
2023/01/22 07:08:49;;;;;;;27.40;14.90;;;;;;;1.88;100.00;100928.65;109200;1291;22424;-68
2023/01/22 07:11:16;;;;;;;25.60;14.70;;;;;;;1.86;100.00;100931.48;109199;1291;22206;-67
2023/01/22 07:13:42;;;;;;;29.30;16.30;;;;;;;1.83;100.00;100929.16;109087;1291;140017;-67
2023/01/22 07:16:09;;;;;;;27.90;15.60;;;;;;;1.83;100.00;100926.70;109231;1290;22415;-67
2023/01/22 07:18:36;;;;;;;27.00;14.80;;;;;;;1.84;100.00;100926.04;109147;1291;138831;-67
2023/01/22 07:21:04;;;;;;;24.20;13.50;;;;;;;1.84;100.00;100922.80;109209;1285;23223;-67
2023/01/22 07:23:30;;;;;;;24.80;14.40;;;;;;;1.86;100.00;100924.73;109205;1291;23048;-68
2023/01/22 07:25:57;;;;;;;30.30;16.20;;;;;;;1.86;100.00;100923.96;109148;1291;138850;-67
2023/01/22 07:28:24;;;;;;;25.90;14.90;;;;;;;1.86;100.00;100923.81;109176;1291;22366;-67
2023/01/22 07:30:51;;;;;;;;;;;;;;;1.86;100.00;100924.15;109056;1287;138924;-67
2023/01/22 07:33:17;;;;;;;29.90;15.60;;;;;;;1.85;100.00;100924.49;109230;1291;22959;-68
2023/01/22 07:35:44;;;;;;;26.10;16.10;;;;;;;1.84;100.00;100926.20;109143;1286;140543;-67
2023/01/22 07:38:11;;;;;;;;;;;;;;;1.83;100.00;100928.98;109045;1291;22432;-67
2023/01/22 07:40:38;;;;;;;26.00;14.60;;;;;;;1.81;100.00;100932.64;109221;1285;22380;-67
2023/01/22 07:43:05;;;;;;;27.90;16.10;;;;;;;1.80;100.00;100932.71;109050;1291;138759;-68
2023/01/22 07:45:32;;;;;;;30.10;15.60;;;;;;;1.77;100.00;100933.64;109181;1291;22502;-68
2023/01/22 07:47:59;;;;;;;;;;;;;;;1.77;100.00;100936.42;109107;1291;139400;-67
2023/01/22 07:50:27;;;;;;;27.10;14.00;;;;;;;1.76;100.00;100936.86;109234;1291;22249;-68
2023/01/22 07:52:54;;;;;;;32.90;17.00;;;;;;;1.74;100.00;100939.23;109276;1291;22187;-68
2023/01/22 07:55:20;;;;;;;27.60;16.00;;;;;;;1.74;100.00;100943.13;109064;1277;139555;-67
2023/01/22 07:57:47;;;;;;;32.80;17.70;;;;;;;1.73;100.00;100943.61;109200;1291;22368;-67
2023/01/22 08:00:14;;;;;;;39.80;20.80;;;;;;;1.72;100.00;100939.42;109173;1291;139350;-67
2023/01/22 08:02:42;;;;;;;26.60;15.80;;;;;;;1.70;100.00;100938.59;109241;1287;22379;-68
2023/01/22 08:05:09;;;;;;;;;;;;;;;1.67;100.00;100939.05;109244;1285;22422;-68
2023/01/22 08:07:36;;;;;;;31.80;17.50;;;;;;;1.66;100.00;100941.66;109205;1291;124359;-68
2023/01/22 08:10:04;;;;;;;38.00;20.60;;;;;;;1.65;100.00;100940.18;109238;1286;22408;-68
2023/01/22 08:12:31;;;;;;;26.50;15.90;;;;;;;1.64;100.00;100942.59;109053;1291;138958;-68
2023/01/22 08:14:57;;;;;;;;;;;;;;;1.63;100.00;100953.52;109296;1291;22516;-68
2023/01/22 08:17:24;;;;;;;34.00;17.60;;;;;;;1.61;100.00;100959.58;109182;1291;124714;-67
2023/01/22 08:19:51;;;;;;;33.30;16.20;;;;;;;1.63;100.00;100972.47;109237;1290;22615;-68
2023/01/22 08:22:17;;;;;;;31.30;17.60;;;;;;;1.66;100.00;100978.98;109113;1289;138534;-68
2023/01/22 08:24:44;;;;;;;33.20;16.70;;;;;;;1.68;100.00;100978.54;109196;1286;22226;-68
2023/01/22 08:27:11;;;;;;;36.50;19.90;;;;;;;1.71;100.00;100975.33;109269;1291;23538;-68
2023/01/22 08:29:37;;;;;;;;;;;;;;;1.75;100.00;100977.40;109199;1291;140397;-68
2023/01/22 08:32:05;;;;;;;32.90;17.10;;;;;;;1.77;100.00;100984.56;109253;1286;22875;-67
2023/01/22 08:34:32;;;;;;;32.70;17.80;;;;;;;1.77;100.00;100986.71;109195;1291;138205;-67
2023/01/22 08:36:59;;;;;;;30.00;17.00;;;;;;;1.78;100.00;100987.17;109281;1291;22239;-68
2023/01/22 08:39:25;;;;;;;31.00;16.60;;;;;;;1.78;100.00;100987.15;109190;1291;22456;-68
2023/01/22 08:41:56;;;;;;;36.70;19.30;;;;;;;1.80;100.00;100989.98;109101;1287;139478;-68
2023/01/22 08:44:24;;;;;;;38.10;19.20;;;;;;;1.80;100.00;100989.98;109011;1291;22473;-68
2023/01/22 08:46:51;;;;;;;36.40;18.90;;;;;;;1.82;100.00;100984.64;109086;1291;139318;-67
2023/01/22 08:49:17;;;;;;;;;;;;;;;1.84;100.00;100985.65;109598;1287;22535;-68
2023/01/22 08:51:44;;;;;;;30.50;16.40;;;;;;;1.86;100.00;100986.87;109490;1280;124969;-68
2023/01/22 08:54:11;;;;;;;36.50;20.20;;;;;;;1.89;100.00;100990.45;109492;1278;22309;-66
2023/01/22 08:56:37;;;;;;;33.70;18.90;;;;;;;1.93;100.00;100988.92;109443;1287;138285;-64
2023/01/22 08:59:05;;;;;;;32.50;18.60;;;;;;;1.95;100.00;100991.95;109564;1287;22175;-67
2023/01/22 09:01:32;;;;;;;34.90;18.90;;;;;;;1.95;100.00;100997.19;109570;1286;22692;-67
2023/01/22 09:03:59;;;;;;;32.10;17.30;;;;;;;1.94;100.00;100995.30;109408;1284;139468;-67
2023/01/22 09:06:26;;;;;;;;;;;;;;;1.93;100.00;100997.17;109589;1280;22471;-67
2023/01/22 09:08:53;;;;;;;31.40;18.50;;;;;;;1.94;100.00;100999.06;109435;1286;124783;-67
2023/01/22 09:11:20;;;;;;;34.10;18.80;;;;;;;1.96;100.00;101003.91;109573;1287;22210;-67
2023/01/22 09:13:46;;;;;;;34.30;19.40;;;;;;;1.98;100.00;101009.70;109433;1287;138447;-66
2023/01/22 09:16:13;;;;;;;38.70;20.90;;;;;;;1.99;100.00;101009.39;109591;1278;22305;-67
2023/01/22 09:18:40;;;;;;;;;;;;;;;2.00;100.00;101008.23;109541;1287;22410;-67
2023/01/22 09:21:07;;;;;;;35.20;18.80;;;;;;;2.01;100.00;101005.67;109426;1282;124918;-67
2023/01/22 09:23:34;;;;;;;37.50;20.60;;;;;;;2.00;100.00;101003.40;109550;1284;22246;-67
2023/01/22 09:26:00;;;;;;;40.40;20.50;;;;;;;1.98;100.00;101007.35;109428;1280;139903;-67
2023/01/22 09:28:27;;;;;;;49.50;26.00;;;;;;;1.98;100.00;101004.56;109541;1286;22194;-67
2023/01/22 09:30:54;;;;;;;38.10;20.80;;;;;;;1.98;100.00;101007.42;109499;1287;139033;-67
2023/01/22 09:33:21;;;;;;;;;;;;;;;1.98;100.00;101008.49;109536;1286;22500;-67
2023/01/22 09:35:47;;;;;;;35.60;18.70;;;;;;;1.98;100.00;101008.19;109504;1287;22230;-67
2023/01/22 09:38:14;;;;;;;32.10;17.60;;;;;;;1.96;100.00;101008.48;109365;1287;138592;-68
2023/01/22 09:40:51;;;;;;;;;;;;;;;1.97;100.00;101009.46;109571;1280;23338;-70
2023/01/22 09:43:27;;;;;;;39.10;19.40;;;;;;;1.98;100.00;101007.55;109384;1288;125148;-68
2023/01/22 09:45:55;;;;;;;43.20;21.20;;;;;;;1.99;100.00;101006.74;109573;1286;22247;-68
2023/01/22 09:48:22;;;;;;;37.80;20.10;;;;;;;1.99;100.00;101006.98;109274;1287;139695;-68
2023/01/22 09:50:49;;;;;;;42.40;20.30;;;;;;;1.95;100.00;101005.36;109527;1287;22365;-68
2023/01/22 09:53:17;;;;;;;45.80;22.10;;;;;;;1.97;100.00;101007.65;109505;1286;22215;-68
2023/01/22 09:55:46;;;;;;;35.10;19.10;;;;;;;1.98;100.00;101006.34;109368;1286;138382;-68
2023/01/22 09:58:15;;;;;;;39.60;20.40;;;;;;;1.98;100.00;101005.84;109552;1280;22225;-68
2023/01/22 10:01:11;;;;;;;43.30;21.70;;;;;;;1.97;100.00;101004.66;109487;1279;139134;-68
2023/01/22 10:03:52;;;;;;;40.10;21.70;;;;;;;1.97;100.00;101005.93;109169;1289;22399;-68
2023/01/22 10:06:21;;;;;;;37.20;20.40;;;;;;;1.96;100.00;101009.39;108703;1291;138719;-68
2023/01/22 13:29:05;;;;;;;29.70;18.50;;;;;;;0.65;100.00;101091.42;103025;1302;590936;-58
2023/01/22 13:31:33;;;;;;;34.30;21.30;;;;;;;0.73;100.00;101097.21;108913;1292;102606;-59
2023/01/22 13:34:07;;;;;;;35.10;16.10;;;;;;;0.75;100.00;101095.61;108998;1286;139409;-59
2023/01/22 13:36:38;;;;;;;43.70;23.50;;;;;;;0.74;100.00;101098.21;109181;1292;22176;-59
2023/01/22 13:39:05;;;;;;;39.90;19.70;;;;;;;0.72;100.00;101100.44;108968;1291;138232;-59
2023/01/22 13:41:34;;;;;;;22.20;14.20;;;;;;;0.72;100.00;101101.67;109245;1292;22234;-59
2023/01/22 13:44:02;;;;;;;22.70;13.50;;;;;;;0.69;100.00;101101.19;109192;1292;22166;-58
2023/01/22 13:46:28;;;;;;;19.40;12.60;;;;;;;0.67;100.00;101105.73;109084;1292;138141;-58
2023/01/22 13:49:18;;;;;;;21.70;13.50;;;;;;;0.62;100.00;101102.30;109208;1288;22214;-59
2023/01/22 13:51:44;;;;;;;24.90;14.60;;;;;;;0.58;100.00;101105.68;108886;1288;138132;-59
2023/01/22 13:54:19;;;;;;;24.10;13.00;;;;;;;0.56;100.00;101109.65;109242;1286;22186;-58
2023/01/22 13:56:45;;;;;;;20.80;12.40;;;;;;;0.55;100.00;101112.13;109148;1284;141086;-59
2023/01/22 13:59:34;;;;;;;;;;;;;;;0.54;100.00;101118.69;109139;1288;22414;-59
2023/01/22 14:02:20;;;;;;;21.90;12.90;;;;;;;0.51;100.00;101123.39;109218;1285;22267;-58
2023/01/22 14:04:47;;;;;;;38.10;21.00;;;;;;;0.51;100.00;101123.27;109187;1288;138306;-59
2023/01/22 14:07:35;;;;;;;32.20;18.90;;;;;;;0.51;100.00;101127.36;109173;1288;22241;-59
2023/01/22 14:10:21;;;;;;;27.20;16.60;;;;;;;0.51;100.00;101130.93;109206;1291;138507;-59
2023/01/22 14:12:58;;;;;;;30.40;14.80;;;;;;;0.51;100.00;101134.11;109193;1292;22289;-59
2023/01/22 14:15:25;;;;;;;19.10;12.40;;;;;;;0.51;100.00;101136.65;108932;1292;138620;-59
2023/01/22 14:17:52;;;;;;;21.40;12.60;;;;;;;0.49;100.00;101143.98;109177;1292;22306;-59
2023/01/22 14:20:19;;;;;;;18.30;11.20;;;;;;;0.48;100.00;101145.34;109163;1292;22244;-59
2023/01/22 14:22:46;;;;;;;28.60;15.50;;;;;;;0.46;100.00;101148.04;109083;1291;138264;-60
2023/01/22 14:25:13;;;;;;;24.00;15.50;;;;;;;0.44;100.00;101150.92;109232;1285;22295;-59
2023/01/22 14:27:39;;;;;;;;;;;;;;;0.42;100.00;101157.60;108771;1290;138716;-59
2023/01/22 14:30:07;;;;;;;23.40;12.70;;;;;;;0.42;100.00;101159.63;109117;1287;22840;-59
2023/01/22 14:32:34;;;;;;;21.80;14.20;;;;;;;0.39;100.00;101157.70;109004;1293;22334;-60
2023/01/22 14:35:01;;;;;;;18.80;12.50;;;;;;;0.43;100.00;101166.42;108971;1288;138535;-59
2023/01/22 14:37:28;;;;;;;;;;;;;;;0.42;100.00;101164.63;108986;1293;22557;-59
2023/01/22 14:39:54;;;;;;;84.50;41.80;;;;;;;0.40;100.00;101163.90;108908;1288;124749;-59
2023/01/22 14:42:25;;;;;;;53.70;26.80;;;;;;;0.38;100.00;101166.42;109336;1287;22884;-59
2023/01/22 14:44:52;;;;;;;51.40;29.50;;;;;;;0.35;100.00;101165.39;109243;1290;138436;-59
2023/01/22 14:47:18;;;;;;;;;;;;;;;0.33;100.00;101165.27;109391;1284;22491;-59
2023/01/22 14:49:45;;;;;;;41.20;23.40;;;;;;;0.30;100.00;101164.59;109315;1284;22233;-59
2023/01/22 14:52:12;;;;;;;57.50;30.90;;;;;;;0.29;100.00;101163.84;109292;1283;139551;-59
2023/01/22 14:54:39;;;;;;;29.10;16.10;;;;;;;0.30;100.00;101167.34;109218;1290;23013;-59
2023/01/22 14:57:06;;;;;;;;;;;;;;;0.29;100.00;101163.64;109305;1283;138414;-58
2023/01/22 14:59:32;;;;;;;31.50;16.70;;;;;;;0.28;100.00;101170.73;109396;1290;22813;-60
2023/01/22 15:01:59;;;;;;;29.70;16.00;;;;;;;0.28;100.00;101169.48;109386;1289;22260;-60
2023/01/22 15:04:26;;;;;;;;;;;;;;;0.27;100.00;101168.67;109183;1290;138773;-58
2023/01/22 15:06:52;;;;;;;30.20;16.10;;;;;;;0.24;100.00;101170.41;109262;1289;22408;-58
2023/01/22 15:09:19;;;;;;;23.50;14.50;;;;;;;0.22;100.00;101170.11;109405;1281;138262;-59
2023/01/22 15:11:46;;;;;;;28.60;16.00;;;;;;;0.21;100.00;101169.13;109552;1284;22193;-59
2023/01/22 15:14:14;;;;;;;80.00;28.10;;;;;;;0.20;100.00;101172.13;109539;1281;22294;-59
2023/01/22 15:16:40;;;;;;;29.50;17.20;;;;;;;0.16;100.00;101172.61;109490;1286;138214;-59
2023/01/22 15:19:07;;;;;;;24.50;15.20;;;;;;;0.15;100.00;101172.93;109675;1279;22217;-59
2023/01/22 15:21:36;;;;;;;24.20;15.30;;;;;;;0.12;100.00;101172.69;109515;1281;137988;-60
2023/01/22 15:24:02;;;;;;;71.80;26.10;;;;;;;0.10;100.00;101174.19;109653;1278;22170;-60
2023/01/22 15:26:32;;;;;;;31.60;16.80;;;;;;;0.08;100.00;101175.41;109623;1285;23020;-59
2023/01/22 15:28:59;;;;;;;22.90;14.80;;;;;;;0.06;100.00;101180.13;109505;1286;138383;-60
2023/01/22 15:31:25;;;;;;;24.60;15.10;;;;;;;0.02;100.00;101180.09;109570;1282;22230;-60
2023/01/22 15:33:52;;;;;;;;;;;;;;;-0.02;100.00;101184.27;109276;1282;138336;-59
2023/01/22 15:36:19;;;;;;;47.80;20.60;;;;;;;-0.06;100.00;101186.77;109606;1282;22205;-60
2023/01/22 15:38:46;;;;;;;66.70;26.10;;;;;;;-0.09;100.00;101189.55;109268;1278;138122;-59
2023/01/22 15:41:18;;;;;;;63.00;24.80;;;;;;;-0.13;100.00;101187.27;109615;1286;22382;-55
2023/01/22 15:43:49;;;;;;;96.00;35.70;;;;;;;-0.15;100.00;101188.96;109247;1281;22261;-56
2023/01/22 15:46:20;;;;;;;33.80;17.50;;;;;;;-0.18;100.00;101190.86;109251;1285;138359;-54
2023/01/22 15:48:47;;;;;;;61.80;24.50;;;;;;;-0.21;100.00;101194.14;109302;1281;22238;-55
2023/01/22 15:51:14;;;;;;;67.90;29.00;;;;;;;-0.23;100.00;101193.84;109430;1279;138569;-55
2023/01/22 15:53:46;;;;;;;41.50;17.70;;;;;;;-0.25;100.00;101191.49;109610;1283;22330;-55
2023/01/22 15:56:13;;;;;;;101.30;31.30;;;;;;;-0.27;100.00;101190.99;109557;1285;22381;-56
2023/01/22 15:58:39;;;;;;;;;;;;;;;-0.28;100.00;101192.30;109532;1286;138533;-55
2023/01/22 16:01:06;;;;;;;45.90;18.90;;;;;;;-0.28;100.00;101193.23;109646;1285;22218;-56
2023/01/22 16:03:33;;;;;;;117.20;42.70;;;;;;;-0.27;100.00;101196.52;109352;1279;138176;-56
2023/01/22 16:06:10;;;;;;;;;;;;;;;-0.27;100.00;101194.58;109485;1283;22436;-55
2023/01/22 16:08:36;;;;;;;46.60;20.60;;;;;;;-0.27;100.00;101198.27;109484;1281;22362;-55
2023/01/22 16:11:03;;;;;;;;;;;;;;;-0.26;100.00;101196.60;109503;1285;138705;-54
2023/01/22 16:13:30;;;;;;;36.30;19.10;;;;;;;-0.24;100.00;101200.55;109616;1285;22202;-54
2023/01/22 16:16:01;;;;;;;33.00;19.50;;;;;;;-0.24;100.00;101199.41;109452;1281;138688;-58
2023/01/22 16:18:28;;;;;;;48.10;25.40;;;;;;;-0.25;100.00;101196.66;109557;1278;22446;-54
2023/01/22 16:20:54;;;;;;;48.20;23.50;;;;;;;-0.20;100.00;101205.89;109426;1281;138292;-54
2023/01/22 16:23:21;;;;;;;;;;;;;;;-0.20;100.00;101206.52;109659;1279;22441;-54
2023/01/22 16:25:48;;;;;;;46.90;22.40;;;;;;;-0.21;100.00;101207.59;109551;1286;22189;-55
2023/01/22 16:28:14;;;;;;;44.90;20.80;;;;;;;-0.21;100.00;101208.83;109529;1286;139633;-54
2023/01/22 16:30:41;;;;;;;52.00;24.20;;;;;;;-0.21;100.00;101209.53;109581;1282;23046;-55
2023/01/22 16:33:24;;;;;;;32.40;18.60;;;;;;;-0.22;100.00;101209.59;109322;1285;140047;-54
2023/01/22 16:36:01;;;;;;;44.60;19.30;;;;;;;-0.24;100.00;101215.01;109397;1281;22417;-54
2023/01/22 16:38:28;;;;;;;68.40;26.80;;;;;;;-0.28;100.00;101215.73;109517;1278;22168;-54
2023/01/22 16:41:14;;;;;;;57.80;27.90;;;;;;;-0.31;100.00;101214.63;109414;1285;139107;-55
2023/01/22 16:44:09;;;;;;;57.40;28.30;;;;;;;-0.32;100.00;101216.85;109475;1286;22417;-54
2023/01/22 16:46:42;;;;;;;38.20;19.20;;;;;;;-0.33;100.00;101210.63;109315;1281;139701;-54
2023/01/22 16:49:16;;;;;;;30.40;16.90;;;;;;;-0.34;100.00;101214.71;109637;1285;22247;-55
2023/01/22 16:51:47;;;;;;;41.10;21.90;;;;;;;-0.36;100.00;101220.61;109525;1285;140251;-55
2023/01/22 16:54:19;;;;;;;35.80;19.90;;;;;;;-0.37;100.00;101223.00;109410;1282;23551;-55
2023/01/22 16:56:46;;;;;;;38.30;20.30;;;;;;;-0.39;100.00;101225.97;109579;1284;138767;-55
2023/01/22 16:59:13;;;;;;;36.10;18.50;;;;;;;-0.41;100.00;101229.60;109641;1286;22244;-55
2023/01/22 17:01:40;;;;;;;34.00;18.90;;;;;;;-0.42;100.00;101234.16;109595;1279;22342;-55
2023/01/22 17:04:07;;;;;;;35.70;17.80;;;;;;;-0.41;100.00;101234.64;109479;1279;138826;-55
2023/01/22 17:06:45;;;;;;;36.70;18.90;;;;;;;-0.40;100.00;101237.21;109620;1285;23153;-55
2023/01/22 17:09:14;;;;;;;35.60;19.00;;;;;;;-0.42;100.00;101237.38;109517;1281;138651;-55
2023/01/22 17:11:42;;;;;;;38.00;22.10;;;;;;;-0.44;100.00;101237.70;109589;1283;22204;-55
2023/01/22 17:14:09;;;;;;;32.30;18.80;;;;;;;-0.47;100.00;101239.98;109672;1285;22357;-55
2023/01/22 17:16:37;;;;;;;36.10;20.30;;;;;;;-0.50;100.00;101243.34;109477;1282;139649;-55
2023/01/22 17:19:04;;;;;;;34.40;19.10;;;;;;;-0.53;100.00;101241.48;109632;1285;23014;-55
2023/01/22 17:21:30;;;;;;;38.20;20.70;;;;;;;-0.56;100.00;101244.41;109479;1285;138982;-55
2023/01/22 17:23:57;;;;;;;33.80;20.30;;;;;;;-0.59;100.00;101246.66;109267;1281;22511;-55
2023/01/22 17:26:24;;;;;;;34.90;19.00;;;;;;;-0.60;100.00;101247.90;109514;1282;22997;-55
2023/01/22 17:28:52;;;;;;;37.80;18.60;;;;;;;-0.61;100.00;101255.25;109556;1285;138661;-55
2023/01/22 17:31:20;;;;;;;31.40;17.90;;;;;;;-0.61;100.00;101258.35;109374;1279;22217;-55
2023/01/22 17:33:48;;;;;;;31.00;17.40;;;;;;;-0.62;100.00;101263.40;109419;1279;138405;-55
2023/01/22 17:36:15;;;;;;;;;;;;;;;-0.61;100.00;101261.56;109587;1285;22556;-55
2023/01/22 17:38:42;;;;;;;34.40;17.60;;;;;;;-0.63;100.00;101263.65;109433;1286;22404;-55
2023/01/22 17:41:10;;;;;;;32.50;17.90;;;;;;;-0.66;100.00;101268.98;109440;1286;139737;-55
2023/01/22 17:43:37;;;;;;;35.80;17.20;;;;;;;-0.68;100.00;101274.72;109597;1284;22466;-54
2023/01/22 17:46:09;;;;;;;31.60;17.60;;;;;;;-0.71;100.00;101273.27;109524;1279;139170;-55
2023/01/22 17:48:36;;;;;;;35.70;19.00;;;;;;;-0.74;100.00;101276.60;109585;1279;22418;-54
2023/01/22 17:51:05;;;;;;;32.00;17.50;;;;;;;-0.74;100.00;101285.00;109202;1282;139559;-55
2023/01/22 17:53:34;;;;;;;28.80;14.90;;;;;;;-0.78;100.00;101280.91;109594;1279;23504;-55
2023/01/22 17:56:13;;;;;;;30.30;15.20;;;;;;;-0.76;100.00;101283.61;109619;1286;22211;-55
2023/01/22 17:58:44;;;;;;;32.20;18.20;;;;;;;-0.74;100.00;101283.26;109475;1279;138738;-55
2023/01/22 18:01:12;;;;;;;31.80;17.00;;;;;;;-0.74;100.00;101285.92;109573;1280;22460;-55
2023/01/22 18:03:39;;;;;;;49.80;19.20;;;;;;;-0.78;100.00;101287.70;109472;1279;140388;-55
2023/01/22 18:06:06;;;;;;;47.00;18.90;;;;;;;-0.81;100.00;101291.94;109501;1279;22287;-55
2023/01/22 18:08:35;;;;;;;52.60;22.70;;;;;;;-0.83;100.00;101287.23;109307;1286;22427;-55
2023/01/22 18:11:12;;;;;;;90.90;29.70;;;;;;;-0.82;100.00;101286.50;109383;1279;139736;-55
2023/01/22 18:13:39;;;;;;;184.40;54.10;;;;;;;-0.82;100.00;101289.48;109471;1281;22244;-55
2023/01/22 18:16:07;;;;;;;;;;;;;;;-0.82;100.00;101289.71;109454;1281;138881;-55
2023/01/22 18:18:34;;;;;;;40.50;19.20;;;;;;;-0.82;100.00;101293.63;109767;1279;23341;-55
2023/01/22 18:21:00;;;;;;;;;;;;;;;-0.84;100.00;101292.92;109733;1281;138828;-55